Time;durP1;ratioP1;P1;durP2;ratioP2;P2;SDS_P1;SDS_P2;PMS_P1;PMS_P2;Temp;Humidity;BMP_temperature;BMP_pressure;BME280_temperature;BME280_humidity;BME280_pressure;Samples;Min_cycle;Max_cycle;Signal;HPM_P1;HPM_P2
2023/01/17 00:02:27;;;;;;;24.02;12.30;;;2.50;87.50;;;;;;1903476;75;21015;-46
2023/01/17 00:10:31;;;;;;;16.15;10.25;;;2.60;88.10;;;;;;1903560;75;21093;-46
2023/01/17 00:13:02;;;;;;;16.42;10.63;;;2.70;88.10;;;;;;1903543;75;21093;-45
2023/01/17 00:15:31;;;;;;;20.12;12.33;;;2.70;88.10;;;;;;1903631;75;21069;-46
2023/01/17 00:18:00;;;;;;;23.25;12.98;;;2.70;88.10;;;;;;1903538;75;21093;-46
2023/01/17 00:26:19;;;;;;;18.32;12.07;;;3.00;87.70;;;;;;1903546;75;21046;-46
2023/01/17 01:33:51;;;;;;;24.87;12.05;;;2.80;87.10;;;;;;1898436;75;21117;-46
2023/01/17 01:36:21;;;;;;;20.88;13.08;;;2.80;87.20;;;;;;1898551;75;21079;-45
2023/01/17 01:38:49;;;;;;;25.45;13.10;;;2.80;87.20;;;;;;1898569;75;21438;-45
2023/01/17 01:41:18;;;;;;;23.35;12.53;;;2.70;86.80;;;;;;1898588;75;21067;-45
2023/01/17 01:43:50;;;;;;;21.85;13.18;;;2.60;86.80;;;;;;1898564;75;21115;-45
2023/01/17 01:46:24;;;;;;;24.80;12.43;;;2.50;86.80;;;;;;1898589;75;21015;-45
2023/01/17 01:48:59;;;;;;;20.55;12.07;;;2.40;86.70;;;;;;1898733;75;21136;-45
2023/01/17 01:51:33;;;;;;;17.40;11.48;;;2.30;86.90;;;;;;1898723;75;21084;-45
2023/01/17 01:54:14;;;;;;;19.90;12.95;;;2.20;87.60;;;;;;1898750;75;21512;-46
2023/01/17 01:56:43;;;;;;;17.77;10.40;;;2.20;88.10;;;;;;1897873;75;21093;-45
2023/01/17 01:59:15;;;;;;;19.90;12.82;;;2.20;88.20;;;;;;1898549;75;21438;-45
2023/01/17 02:01:44;;;;;;;19.82;12.68;;;2.30;88.30;;;;;;1898586;75;21050;-45
2023/01/17 02:04:14;;;;;;;18.45;11.05;;;2.40;88.20;;;;;;1898576;75;20995;-45
2023/01/17 02:06:45;;;;;;;23.27;12.15;;;2.50;88.30;;;;;;1898446;75;21071;-45
2023/01/17 02:09:17;;;;;;;20.62;13.25;;;2.60;88.00;;;;;;1897235;75;21059;-45
2023/01/17 02:11:48;;;;;;;16.95;11.00;;;2.60;87.80;;;;;;1898518;75;21003;-45
2023/01/17 02:14:18;;;;;;;18.05;11.00;;;2.70;87.40;;;;;;1898482;75;21528;-45
2023/01/17 02:16:50;;;;;;;22.40;12.70;;;2.70;87.20;;;;;;1898566;75;21003;-46
2023/01/17 02:19:37;;;;;;;18.80;12.37;;;2.60;87.20;;;;;;1898268;75;21113;-47
2023/01/17 02:22:14;;;;;;;21.12;12.95;;;2.60;87.60;;;;;;1898606;75;21066;-45
2023/01/17 02:24:55;;;;;;;21.27;12.80;;;2.60;87.80;;;;;;1898540;75;21086;-45
2023/01/17 02:27:30;;;;;;;21.60;13.15;;;2.70;87.80;;;;;;1898570;75;21153;-47
2023/01/17 02:30:23;;;;;;;22.37;13.22;;;2.80;87.80;;;;;;1897363;75;21454;-45
2023/01/17 02:33:10;;;;;;;20.23;12.30;;;2.80;87.60;;;;;;1896728;75;21015;-46
2023/01/17 02:35:44;;;;;;;24.02;14.60;;;2.90;87.60;;;;;;1897787;75;21098;-45
2023/01/17 02:38:16;;;;;;;39.85;20.02;;;2.90;87.50;;;;;;1898402;75;21020;-47
2023/01/17 02:40:54;;;;;;;23.07;12.88;;;2.90;87.40;;;;;;1896503;75;21047;-46
2023/01/17 02:43:24;;;;;;;19.80;10.70;;;2.90;87.40;;;;;;1897720;75;21102;-46
2023/01/17 02:45:53;;;;;;;20.10;11.30;;;2.90;87.30;;;;;;1898524;75;21433;-46
2023/01/17 02:48:25;;;;;;;17.90;10.93;;;2.90;87.90;;;;;;1898518;75;21082;-46
2023/01/17 02:51:08;;;;;;;21.07;12.13;;;3.00;87.60;;;;;;1898536;75;21117;-45
2023/01/17 02:53:55;;;;;;;28.52;11.55;;;2.90;87.40;;;;;;1897172;75;21055;-45
2023/01/17 02:56:42;;;;;;;20.30;10.78;;;2.90;87.40;;;;;;1898473;75;21113;-46
2023/01/17 02:59:19;;;;;;;16.90;9.95;;;3.00;87.60;;;;;;1898583;75;21500;-48
2023/01/17 03:01:56;;;;;;;16.57;10.20;;;3.00;87.50;;;;;;1898200;75;21047;-45
2023/01/17 03:04:40;;;;;;;15.05;9.98;;;3.00;87.40;;;;;;1896901;75;21128;-45
2023/01/17 03:07:11;;;;;;;18.00;10.03;;;2.90;87.40;;;;;;1897372;75;21513;-46
2023/01/17 03:09:42;;;;;;;15.15;9.50;;;3.00;87.50;;;;;;1898098;75;21044;-46
2023/01/17 03:12:11;;;;;;;14.85;9.53;;;2.90;87.40;;;;;;1898429;75;21012;-46
2023/01/17 03:14:40;;;;;;;18.17;10.60;;;3.00;87.40;;;;;;1898524;75;21031;-45
2023/01/17 03:17:09;;;;;;;29.65;16.20;;;2.90;86.90;;;;;;1898390;75;21133;-46
2023/01/17 03:19:39;;;;;;;22.00;12.37;;;2.90;87.00;;;;;;1898490;75;21023;-46
2023/01/17 03:22:07;;;;;;;17.62;10.98;;;2.80;87.00;;;;;;1898439;75;21021;-45
2023/01/17 03:24:36;;;;;;;15.63;10.82;;;2.60;86.90;;;;;;1898385;75;21032;-45
2023/01/17 03:27:05;;;;;;;18.77;10.80;;;2.60;87.60;;;;;;1898517;75;21019;-45
2023/01/17 03:29:35;;;;;;;13.93;10.03;;;2.60;88.00;;;;;;1898375;75;21604;-45
2023/01/17 03:32:04;;;;;;;19.90;9.83;;;2.60;88.20;;;;;;1898392;75;21067;-48
2023/01/17 03:34:33;;;;;;;19.80;12.28;;;2.70;88.20;;;;;;1898407;75;21069;-46
2023/01/17 03:37:02;;;;;;;28.98;15.45;;;2.70;88.10;;;;;;1898540;75;21023;-45
2023/01/17 03:39:31;;;;;;;43.28;18.75;;;2.80;88.00;;;;;;1898603;75;21052;-45
2023/01/17 03:42:00;;;;;;;47.58;18.52;;;2.80;87.80;;;;;;1898508;75;21047;-47
2023/01/17 03:44:29;;;;;;;84.32;31.05;;;2.90;87.50;;;;;;1898567;75;21024;-45
2023/01/17 03:46:58;;;;;;;42.48;19.85;;;2.80;87.40;;;;;;1898512;75;21081;-46
2023/01/17 03:49:28;;;;;;;30.40;15.43;;;2.80;87.50;;;;;;1898495;75;21579;-45
2023/01/17 03:51:57;;;;;;;55.95;25.27;;;2.80;87.60;;;;;;1898505;75;21083;-45
2023/01/17 03:54:26;;;;;;;39.88;18.62;;;2.80;87.80;;;;;;1898576;75;21016;-45
2023/01/17 03:56:55;;;;;;;23.77;14.35;;;2.80;87.30;;;;;;1898447;75;21055;-46
2023/01/17 03:59:24;;;;;;;39.63;21.70;;;2.80;87.30;;;;;;1898559;75;21125;-47
2023/01/17 04:01:53;;;;;;;75.87;30.20;;;2.70;87.40;;;;;;1898570;75;21016;-45
2023/01/17 04:04:22;;;;;;;40.05;17.70;;;2.70;87.70;;;;;;1898510;75;21043;-45
2023/01/17 04:06:51;;;;;;;22.52;12.23;;;2.70;87.60;;;;;;1900351;75;21121;-46
2023/01/17 04:09:20;;;;;;;21.07;12.68;;;2.70;87.80;;;;;;1903493;75;21027;-46
2023/01/17 04:11:49;;;;;;;23.77;11.83;;;2.70;87.90;;;;;;1903495;75;21454;-45
2023/01/17 04:14:18;;;;;;;22.00;13.13;;;2.70;87.80;;;;;;1903483;75;21081;-45
2023/01/17 04:16:47;;;;;;;20.75;13.20;;;2.80;88.00;;;;;;1903510;75;21109;-45
2023/01/17 04:19:17;;;;;;;21.60;12.95;;;2.80;88.00;;;;;;1903612;75;21015;-45
2023/01/17 04:21:46;;;;;;;24.23;12.35;;;2.80;87.20;;;;;;1903581;75;21039;-46
2023/01/17 04:24:14;;;;;;;23.73;12.47;;;2.80;87.20;;;;;;1903420;75;21606;-46
2023/01/17 04:26:43;;;;;;;26.37;15.88;;;2.70;87.50;;;;;;1903470;75;21047;-47
2023/01/17 04:29:12;;;;;;;20.85;12.45;;;2.70;87.90;;;;;;1903405;75;21168;-46
2023/01/17 04:31:41;;;;;;;22.40;13.43;;;2.70;88.00;;;;;;1903536;75;21047;-46
2023/01/17 04:34:10;;;;;;;26.15;14.23;;;2.70;88.10;;;;;;1903460;75;21015;-45
2023/01/17 04:36:40;;;;;;;24.47;14.13;;;2.70;88.20;;;;;;1903348;75;21019;-46
2023/01/17 04:39:09;;;;;;;22.42;14.00;;;2.70;88.10;;;;;;1903454;75;21073;-45
2023/01/17 04:41:38;;;;;;;25.32;13.10;;;2.80;88.10;;;;;;1903487;75;21105;-46
2023/01/17 04:44:07;;;;;;;23.50;13.13;;;2.80;88.00;;;;;;1903358;75;21015;-45
2023/01/17 04:46:36;;;;;;;23.15;14.20;;;2.80;88.00;;;;;;1903381;75;21039;-46
2023/01/17 04:49:05;;;;;;;21.27;14.10;;;2.80;88.10;;;;;;1903569;75;21116;-45
2023/01/17 04:51:34;;;;;;;24.90;15.53;;;2.90;87.90;;;;;;1903505;75;21007;-45
2023/01/17 04:54:03;;;;;;;27.45;14.93;;;2.90;87.90;;;;;;1903587;75;21055;-45
2023/01/17 04:56:32;;;;;;;24.45;14.40;;;3.00;88.60;;;;;;1903470;75;21019;-46
2023/01/17 04:59:01;;;;;;;20.82;12.35;;;3.00;87.70;;;;;;1903503;75;20995;-45
2023/01/17 05:01:29;;;;;;;22.73;14.78;;;3.00;87.60;;;;;;1903584;75;20995;-47
2023/01/17 05:03:59;;;;;;;24.82;13.53;;;3.00;87.60;;;;;;1903438;75;21088;-45
2023/01/17 05:06:27;;;;;;;29.65;13.10;;;2.90;87.70;;;;;;1903491;75;21007;-46
2023/01/17 05:08:56;;;;;;;23.40;13.85;;;2.90;87.80;;;;;;1898635;75;21055;-46
2023/01/17 05:11:25;;;;;;;25.60;16.73;;;3.00;88.10;;;;;;1898446;75;21132;-45
2023/01/17 05:13:54;;;;;;;35.92;17.87;;;3.00;88.10;;;;;;1898606;75;21019;-46
2023/01/17 05:16:23;;;;;;;35.48;18.50;;;3.00;87.90;;;;;;1898410;75;21015;-46
2023/01/17 05:18:53;;;;;;;57.58;26.40;;;3.00;87.90;;;;;;1898434;75;20992;-46
2023/01/17 05:21:22;;;;;;;29.30;15.53;;;3.00;87.80;;;;;;1898368;75;21123;-46
2023/01/17 05:23:51;;;;;;;24.82;15.05;;;3.00;87.70;;;;;;1898365;75;21016;-46
2023/01/17 05:26:21;;;;;;;31.77;15.88;;;3.00;87.80;;;;;;1898366;75;21047;-46
2023/01/17 05:28:50;;;;;;;26.20;15.88;;;3.00;87.90;;;;;;1898457;75;21528;-45
2023/01/17 05:31:19;;;;;;;34.25;16.00;;;3.00;87.70;;;;;;1898372;75;21093;-45
2023/01/17 05:33:48;;;;;;;28.70;15.65;;;3.00;87.20;;;;;;1898539;75;21015;-46
2023/01/17 05:36:17;;;;;;;32.80;17.95;;;2.90;87.40;;;;;;1898421;75;21031;-46
2023/01/17 05:38:46;;;;;;;29.87;16.75;;;3.00;87.70;;;;;;1898383;75;21081;-46
2023/01/17 05:41:15;;;;;;;45.63;17.27;;;3.00;88.00;;;;;;1898375;75;21103;-46
2023/01/17 05:43:44;;;;;;;32.53;15.55;;;3.00;87.90;;;;;;1898379;75;21162;-47
2023/01/17 05:46:14;;;;;;;30.82;16.40;;;3.10;88.00;;;;;;1898454;75;21015;-45
2023/01/17 05:48:44;;;;;;;25.02;16.57;;;3.20;87.90;;;;;;1898405;75;21016;-46
2023/01/17 05:51:13;;;;;;;34.43;20.30;;;3.20;87.70;;;;;;1898543;75;21039;-45
2023/01/17 05:53:41;;;;;;;36.77;20.10;;;3.30;87.80;;;;;;1898570;75;21118;-46
2023/01/17 05:56:10;;;;;;;41.65;21.95;;;3.30;87.80;;;;;;1898425;75;21048;-46
2023/01/17 05:58:40;;;;;;;36.17;20.37;;;3.40;87.80;;;;;;1898432;75;21060;-47
2023/01/17 06:01:08;;;;;;;34.73;22.32;;;3.50;87.80;;;;;;1898493;75;21027;-46
2023/01/17 06:03:37;;;;;;;39.15;22.58;;;3.50;87.70;;;;;;1898418;75;21051;-45
2023/01/17 06:06:07;;;;;;;41.18;20.95;;;3.60;87.70;;;;;;1898539;75;21043;-48
2023/01/17 06:08:35;;;;;;;48.20;21.07;;;3.70;87.60;;;;;;1898460;75;21098;-45
2023/01/17 06:11:04;;;;;;;37.67;19.23;;;3.70;87.60;;;;;;1898547;75;21085;-46
2023/01/17 06:13:33;;;;;;;40.45;19.75;;;3.70;87.20;;;;;;1898433;75;21019;-46
2023/01/17 06:16:02;;;;;;;35.65;18.15;;;3.70;87.40;;;;;;1898396;75;21090;-46
2023/01/17 06:18:32;;;;;;;30.55;17.65;;;3.60;87.70;;;;;;1898453;75;21085;-46
2023/01/17 06:21:01;;;;;;;34.85;17.12;;;3.70;87.90;;;;;;1898298;75;21070;-46
2023/01/17 06:23:30;;;;;;;30.95;15.43;;;3.70;88.10;;;;;;1898339;75;21019;-47
2023/01/17 06:26:02;;;;;;;27.02;15.28;;;3.90;88.30;;;;;;1898320;75;21028;-46
2023/01/17 06:28:31;;;;;;;27.77;14.45;;;4.00;88.50;;;;;;1898318;75;21011;-46
2023/01/17 06:31:01;;;;;;;28.85;14.85;;;4.20;88.30;;;;;;1898343;75;21478;-51
2023/01/17 06:33:31;;;;;;;24.77;16.32;;;4.30;88.20;;;;;;1898131;75;21051;-49
2023/01/17 06:36:00;;;;;;;29.70;17.73;;;4.50;88.20;;;;;;1898306;75;21015;-47
2023/01/17 06:38:29;;;;;;;40.15;18.02;;;4.50;88.50;;;;;;1898431;75;21039;-46
2023/01/17 06:40:59;;;;;;;29.18;18.32;;;4.50;88.70;;;;;;1898314;75;21019;-45
2023/01/17 06:43:32;;;;;;;30.27;17.92;;;4.50;88.20;;;;;;1898297;75;21015;-46
2023/01/17 06:46:00;;;;;;;27.32;14.90;;;4.60;88.50;;;;;;1898092;75;21023;-46
2023/01/17 06:48:28;;;;;;;26.00;15.58;;;4.60;88.50;;;;;;1898313;75;21085;-45
2023/01/17 06:50:58;;;;;;;29.27;17.45;;;4.70;88.80;;;;;;1898534;75;21015;-46
2023/01/17 06:53:27;;;;;;;30.43;18.17;;;4.70;89.80;;;;;;1898508;75;21101;-46
2023/01/17 06:55:57;;;;;;;32.83;19.50;;;4.80;89.40;;;;;;1898471;75;21059;-45
2023/01/17 06:58:26;;;;;;;35.95;18.57;;;4.90;90.10;;;;;;1898597;75;21066;-46
2023/01/17 07:00:55;;;;;;;33.90;17.20;;;4.90;90.30;;;;;;1898527;75;21505;-46
2023/01/17 07:03:27;;;;;;;29.85;15.95;;;5.00;89.90;;;;;;1898480;75;21133;-45
2023/01/17 07:05:56;;;;;;;27.32;16.82;;;5.10;90.00;;;;;;1898505;75;21078;-46
2023/01/17 07:08:25;;;;;;;29.72;16.95;;;5.20;90.20;;;;;;1898417;75;21583;-45
2023/01/17 07:10:59;;;;;;;23.12;14.50;;;5.30;89.90;;;;;;1898536;75;21011;-45
2023/01/17 07:13:29;;;;;;;21.85;15.15;;;5.30;90.10;;;;;;1898909;75;21062;-45
2023/01/17 07:16:02;;;;;;;18.87;12.82;;;5.40;89.60;;;;;;1898578;75;21077;-48
2023/01/17 07:18:32;;;;;;;33.00;20.80;;;5.50;89.60;;;;;;1898673;75;21114;-45
2023/01/17 07:21:01;;;;;;;33.73;27.05;;;5.60;89.40;;;;;;1898646;75;21016;-45
2023/01/17 07:23:30;;;;;;;32.90;22.67;;;5.70;89.40;;;;;;1898471;75;21113;-47
2023/01/17 07:26:00;;;;;;;35.35;16.80;;;5.70;89.30;;;;;;1898644;75;21443;-45
2023/01/17 07:28:29;;;;;;;21.95;14.00;;;5.90;89.40;;;;;;1898560;75;21031;-46
2023/01/17 07:30:58;;;;;;;16.62;11.75;;;6.00;89.20;;;;;;1898638;75;21078;-45
2023/01/17 07:33:27;;;;;;;20.17;12.05;;;6.10;89.20;;;;;;1898608;75;21019;-49
2023/01/17 07:35:56;;;;;;;15.75;12.05;;;6.20;89.10;;;;;;1898567;75;21070;-45
2023/01/17 07:38:25;;;;;;;23.18;14.93;;;6.30;89.00;;;;;;1898656;75;21043;-46
2023/01/17 07:40:57;;;;;;;19.27;11.63;;;6.30;88.80;;;;;;1898523;75;21148;-46
2023/01/17 07:43:26;;;;;;;16.30;9.80;;;6.40;88.70;;;;;;1897747;75;21086;-46
2023/01/17 07:45:56;;;;;;;20.55;11.83;;;6.50;88.60;;;;;;1898614;75;21015;-46
2023/01/17 07:48:25;;;;;;;16.67;9.55;;;6.60;88.50;;;;;;1897494;75;21082;-61
2023/01/17 07:50:58;;;;;;;16.37;10.25;;;6.80;90.40;;;;;;1897781;75;21172;-60
2023/01/17 07:53:29;;;;;;;15.65;8.65;;;7.20;91.20;;;;;;1897941;75;21086;-59
2023/01/17 07:56:03;;;;;;;16.20;9.08;;;7.60;91.10;;;;;;1897656;75;21027;-49
2023/01/17 07:58:33;;;;;;;19.45;9.88;;;8.00;90.50;;;;;;1898281;75;21075;-50
2023/01/17 08:01:10;;;;;;;17.23;10.50;;;8.20;89.50;;;;;;1898036;75;21021;-49
2023/01/17 08:03:39;;;;;;;12.37;8.78;;;8.30;86.60;;;;;;1899614;75;21029;-47
2023/01/17 08:06:19;;;;;;;14.47;9.50;;;8.30;87.10;;;;;;1896830;75;21037;-46
2023/01/17 08:08:48;;;;;;;16.32;9.35;;;8.20;87.30;;;;;;1898860;75;21478;-50
2023/01/17 08:11:17;;;;;;;14.40;9.18;;;8.20;86.30;;;;;;1890856;76;21029;-56
2023/01/17 08:13:46;;;;;;;15.72;9.90;;;8.20;86.60;;;;;;1891020;76;21511;-49
2023/01/17 08:28:30;;;;;;;12.88;8.73;;;8.20;85.40;;;;;;1953019;73;22124;-65
2023/01/17 08:31:07;;;;;;;12.10;6.85;;;9.00;79.70;;;;;;1924446;74;21509;-65
2023/01/17 08:33:37;;;;;;;8.35;5.45;;;9.00;80.20;;;;;;1887128;76;21053;-64
2023/01/17 08:36:06;;;;;;;9.60;6.00;;;9.20;79.70;;;;;;1924380;74;21009;-65
2023/01/17 08:38:36;;;;;;;8.63;5.70;;;9.30;79.70;;;;;;1887508;76;21081;-64
2023/01/17 08:41:05;;;;;;;8.60;5.12;;;9.40;78.90;;;;;;1924172;74;21130;-68
2023/01/17 08:43:34;;;;;;;7.22;5.65;;;9.50;78.90;;;;;;1887696;76;21119;-57
2023/01/17 08:46:04;;;;;;;7.92;5.15;;;9.60;78.50;;;;;;1924390;74;21080;-59
2023/01/17 08:48:34;;;;;;;8.10;5.45;;;9.60;78.10;;;;;;1887494;76;21034;-59
2023/01/17 09:02:54;;;;;;;12.13;7.17;;;9.70;76.60;;;;;;1978017;72;27865;-57
2023/01/17 09:05:23;;;;;;;8.25;5.10;;;10.70;69.60;;;;;;1988260;72;21440;-57
2023/01/17 09:07:52;;;;;;;6.83;5.15;;;10.70;69.70;;;;;;1988226;72;21499;-58
2023/01/17 09:10:22;;;;;;;7.78;5.62;;;10.80;70.40;;;;;;1988344;72;21385;-58
2023/01/17 09:12:52;;;;;;;7.37;5.22;;;10.80;70.80;;;;;;1988319;72;21143;-59
2023/01/17 09:15:21;;;;;;;7.08;4.87;;;10.80;71.00;;;;;;1988023;72;21065;-57
2023/01/17 09:17:50;;;;;;;12.73;5.33;;;10.80;70.10;;;;;;1988155;72;21058;-57
2023/01/17 09:20:19;;;;;;;8.40;5.22;;;10.90;70.80;;;;;;1988284;72;21156;-58
2023/01/17 09:22:48;;;;;;;7.25;5.08;;;10.90;70.60;;;;;;1988223;72;21015;-58
2023/01/17 09:25:17;;;;;;;8.03;5.00;;;10.90;69.80;;;;;;1988221;72;21429;-57
2023/01/17 09:27:47;;;;;;;7.42;4.97;;;11.00;70.10;;;;;;1988289;72;21061;-56
2023/01/17 09:30:16;;;;;;;8.10;5.70;;;11.00;69.40;;;;;;1977615;72;21557;-57
2023/01/17 09:32:53;;;;;;;8.73;5.08;;;11.10;69.90;;;;;;1957287;73;21038;-57
2023/01/17 09:35:22;;;;;;;6.75;4.90;;;11.10;69.70;;;;;;1957086;73;21315;-59
2023/01/17 09:37:51;;;;;;;7.05;4.47;;;11.10;70.50;;;;;;1957124;73;21034;-59
2023/01/17 09:40:23;;;;;;;7.45;5.17;;;11.20;69.80;;;;;;1957127;73;21421;-57
2023/01/17 09:42:56;;;;;;;8.50;5.65;;;11.20;69.60;;;;;;1957332;73;21042;-59
2023/01/17 09:45:29;;;;;;;10.18;5.12;;;11.20;69.60;;;;;;1957166;73;21070;-58
2023/01/17 09:48:00;;;;;;;7.08;5.03;;;11.20;70.00;;;;;;1957295;73;21072;-60
2023/01/17 09:50:41;;;;;;;8.53;6.00;;;11.20;69.90;;;;;;1957208;73;21176;-59
2023/01/17 09:53:21;;;;;;;9.63;6.28;;;11.20;69.70;;;;;;1943166;73;21471;-59
2023/01/17 09:56:02;;;;;;;7.37;4.83;;;11.20;70.20;;;;;;1957284;73;21127;-58
2023/01/17 09:58:34;;;;;;;7.97;5.25;;;11.20;69.30;;;;;;1957179;73;21479;-59
2023/01/17 10:01:13;;;;;;;6.95;4.40;;;11.20;69.60;;;;;;1956336;73;21152;-59
2023/01/17 10:03:45;;;;;;;7.40;5.47;;;11.30;68.80;;;;;;1947408;73;21141;-59
2023/01/17 10:06:26;;;;;;;8.25;4.70;;;11.20;69.10;;;;;;1955731;73;21019;-58
2023/01/17 10:09:10;;;;;;;7.22;4.83;;;11.30;68.40;;;;;;1953842;73;21046;-58
2023/01/17 10:12:10;;;;;;;9.95;5.15;;;11.30;68.30;;;;;;1956031;73;21112;-58
2023/01/17 10:15:02;;;;;;;10.10;5.28;;;11.40;68.50;;;;;;1956332;73;21026;-59
2023/01/17 10:17:48;;;;;;;10.50;6.72;;;11.40;68.20;;;;;;1956264;73;21065;-57
2023/01/17 10:20:43;;;;;;;13.53;6.20;;;11.40;68.70;;;;;;1955650;73;20998;-58
2023/01/17 10:23:31;;;;;;;9.85;5.87;;;11.40;68.90;;;;;;1956366;73;21010;-57
2023/01/17 10:26:09;;;;;;;9.33;5.62;;;11.40;69.10;;;;;;1956301;73;21085;-58
2023/01/17 10:28:45;;;;;;;8.80;5.28;;;11.40;69.50;;;;;;1955845;73;21018;-58
2023/01/17 10:31:23;;;;;;;7.33;4.30;;;11.40;68.50;;;;;;1956306;73;21010;-58
2023/01/17 10:34:02;;;;;;;6.58;5.08;;;11.40;66.60;;;;;;1956285;73;21023;-58
2023/01/17 12:57:47;;;;;;;9.53;5.47;;;11.30;63.70;;;;;;1958200;73;26345;-57
2023/01/17 13:00:24;;;;;;;9.10;4.90;;;11.20;66.20;;;;;;1917406;74;21488;-57
2023/01/17 13:03:15;;;;;;;5.30;4.15;;;11.20;66.20;;;;;;1917745;75;21039;-57
2023/01/17 13:05:47;;;;;;;10.90;4.90;;;11.20;65.90;;;;;;1917321;74;21050;-57
2023/01/17 13:08:25;;;;;;;7.40;5.20;;;11.20;66.40;;;;;;1918048;75;21019;-57
2023/01/17 13:10:55;;;;;;;7.72;4.72;;;;;;;;;;1917685;74;21065;-58
2023/01/17 13:13:27;;;;;;;7.47;5.10;;;;;;;;;;1917551;74;21051;-58
2023/01/17 13:15:57;;;;;;;14.28;5.45;;;;;;;;;;1917722;75;21023;-57
2023/01/17 13:18:28;;;;;;;11.22;6.28;;;;;;;;;;1916317;74;21015;-57
2023/01/17 13:21:04;;;;;;;9.50;5.10;;;;;;;;;;1917742;75;21018;-57
2023/01/17 13:23:34;;;;;;;13.68;5.70;;;;;;;;;;1917350;74;21066;-57
2023/01/17 13:26:04;;;;;;;13.13;5.30;;;;;;;;;;1913233;74;21015;-57
2023/01/17 13:28:34;;;;;;;15.18;5.30;;;;;;;;;;1917682;75;21488;-58
2023/01/17 13:31:07;;;;;;;10.08;5.22;;;;;;;;;;1917628;73;21489;-56
2023/01/17 13:33:43;;;;;;;12.23;5.10;;;;;;;;;;1917790;74;21101;-58
2023/01/17 13:36:15;;;;;;;10.23;5.70;;;;;;;;;;1917655;74;21035;-58
2023/01/17 13:39:02;;;;;;;14.83;5.55;;;;;;;;;;1917690;75;21047;-55
2023/01/17 13:41:35;;;;;;;9.65;5.25;;;;;;;;;;1917667;75;21091;-57
2023/01/17 13:47:07;;;;;;;10.32;5.03;;;;;;;;;;1847576;74;21047;-57
2023/01/17 13:49:34;;;;;;;8.20;5.75;;;;;;;;;;1916037;74;21607;-56
2023/01/17 13:52:12;;;;;;;13.35;5.53;;;;;;;;;;1917620;75;21062;-58
2023/01/17 13:54:51;;;;;;;17.07;6.83;;;;;;;;;;1917608;74;21066;-57
2023/01/17 13:57:28;;;;;;;21.10;6.65;;;;;;;;;;1922314;74;21097;-58
2023/01/17 13:59:57;;;;;;;13.72;5.47;;;;;;;;;;1924772;74;21068;-58
2023/01/17 14:02:33;;;;;;;12.25;6.42;;;;;;;;;;1924801;74;21127;-57
2023/01/17 14:05:13;;;;;;;11.03;5.50;;;;;;;;;;1924785;74;21530;-58
2023/01/17 14:07:43;;;;;;;15.63;5.97;;;;;;;;;;1924526;74;21089;-58
